Time;durP1;ratioP1;P1;durP2;ratioP2;P2;SDS_P1;SDS_P2;PMS_P1;PMS_P2;Temp;Humidity;BMP_temperature;BMP_pressure;BME280_temperature;BME280_humidity;BME280_pressure;Samples;Min_cycle;Max_cycle;Signal;HPM_P1;HPM_P2
2022/09/29 00:00:10;;;;;;;;;;;;;;;;;;349913;28;1209;-65
2022/09/29 00:00:20;;;;;;;;;;;;;;;;;;349913;28;1011;-65
2022/09/29 00:00:30;;;;;;;;;;;;;;;;;;349911;28;929;-65
2022/09/29 00:00:40;;;;;;;;;;;;;;;;;;349941;28;845;-64
2022/09/29 00:00:51;;;;;;;;;;;;;;;;;;349933;28;1328;-65
2022/09/29 00:01:02;;;;;;;;;;;;;;;;;;349881;28;903;-65
2022/09/29 00:01:12;;;;;;;;;;;;;;;;;;349894;28;979;-65
2022/09/29 00:01:22;;;;;;;;;;;;;;;;;;349897;28;1910;-65
2022/09/29 00:01:32;;;;;;;;;;;;;;;;;;348488;28;2109;-64
2022/09/29 00:01:42;;;;;;;;;;;;;;;;;;351194;28;916;-65
2022/09/29 00:01:52;;;;;;;;;;;;;;;;;;351249;28;975;-65
2022/09/29 00:02:03;;;;;;;;;;;;;;;;;;351323;28;907;-65
2022/09/29 00:02:13;;;;;;;;;;;;;;;;;;351303;28;847;-64
2022/09/29 00:02:23;;;;;;;;;;;;;;;;;;351248;28;983;-65
2022/09/29 00:02:33;;;;;;;;;;;;;;;;;;351322;28;919;-65
2022/09/29 00:02:43;;;;;;;;;;;;;;;;;;351327;28;974;-64
2022/09/29 00:02:54;;;;;;;;;;;;;;;;;;351311;28;1007;-65
2022/09/29 00:03:04;;;;;;;;;;;;;;;;;;351220;28;916;-65
2022/09/29 00:03:15;;;;;;;;;;;;;;;;;;351326;28;963;-64
2022/09/29 00:03:25;;;;;;;;;;;;;;;;;;351274;28;987;-65
2022/09/29 00:03:36;;;;;;;;;;;;;;;;;;351326;28;1009;-64
2022/09/29 00:03:46;;;;;;;;;;;;;;;;;;351326;28;785;-65
2022/09/29 00:03:56;;;;;;;;;;;;;;;;;;351248;28;904;-65
2022/09/29 00:04:07;;;;;;;;;;;;;;;;;;351346;28;844;-64
2022/09/29 00:04:17;;;;;;;;;;;;;;;;;;351323;28;907;-65
2022/09/29 00:04:27;;;;;;;;;;;;;;;;;;349303;28;1429;-64
2022/09/29 00:04:37;;;;;;;;;;;;;;;;;;348281;28;1338;-65
2022/09/29 00:04:47;;;;;;;;;;;;;;;;;;349903;28;1002;-65
2022/09/29 00:04:57;;;;;;;;;;;;;;;;;;349955;28;959;-65
2022/09/29 00:05:08;;;;;;;;;;;;;;;;;;349885;28;916;-65
2022/09/29 00:05:18;;;;;;;;;;;;;;;;;;349900;28;924;-65
2022/09/29 00:05:29;;;;;;;;;;;;;;;;;;349871;28;984;-65
2022/09/29 00:05:45;;;;;;;;;;;;;;;;;;349896;28;1003;-65
2022/09/29 00:05:55;;;;;;;;;;;;;;;;;;349906;28;928;-65
2022/09/29 00:06:10;;;;;;;;;;;;;;;;;;349831;28;943;-65
2022/09/29 00:06:21;;;;;;;;;;;;;;;;;;349892;28;928;-65
2022/09/29 00:06:31;;;;;;;;;;;;;;;;;;349873;28;959;-65
2022/09/29 00:06:41;;;;;;;;;;;;;;;;;;349910;28;920;-65
2022/09/29 00:06:51;;;;;;;;;;;;;;;;;;349908;28;967;-65
2022/09/29 00:07:01;;;;;;;;;;;;;;;;;;349856;28;907;-65
2022/09/29 00:07:12;;;;;;;;;;;;;;;;;;349915;28;936;-65
2022/09/29 00:07:22;;;;;;;;;;;;;;;;;;349940;28;935;-65
2022/09/29 00:07:32;;;;;;;;;;;;;;;;;;349894;28;1007;-65
2022/09/29 00:07:42;;;;;;;;;;;;;;;;;;349965;28;849;-65
2022/09/29 00:07:52;;;;;;;;;;;;;;;;;;349889;28;935;-65
2022/09/29 00:08:03;;;;;;;;;;;;;;;;;;349832;28;1003;-65
2022/09/29 00:08:14;;;;;;;;;;;;;;;;;;349911;28;976;-65
2022/09/29 00:08:25;;;;;;;;;;;;;;;;;;349954;28;1780;-65
2022/09/29 00:08:36;;;;;;;;;;;;;;;;;;349857;28;1069;-65
2022/09/29 00:08:46;;;;;;;;;;;;;;;;;;349887;28;967;-65
2022/09/29 00:08:57;;;;;;;;;;;;;;;;;;349951;28;928;-65
2022/09/29 00:09:07;;;;;;;;;;;;;;;;;;349943;28;900;-65
2022/09/29 00:09:17;;;;;;;;;;;;;;;;;;349907;28;936;-65
2022/09/29 00:09:27;;;;;;;;;;;;;;;;;;349891;28;956;-65
2022/09/29 00:09:37;;;;;;;;;;;;;;;;;;349928;28;908;-65
2022/09/29 00:09:48;;;;;;;;;;;;;;;;;;349931;28;936;-65
2022/09/29 00:09:58;;;;;;;;;;;;;;;;;;349878;28;972;-65
2022/09/29 00:10:08;;;;;;;;;;;;;;;;;;349863;28;778;-64
2022/09/29 00:10:18;;;;;;;;;;;;;;;;;;349929;28;1752;-65
2022/09/29 00:10:28;;;;;;;;;;;;;;;;;;349915;28;883;-65
2022/09/29 00:10:40;;;;;;;;;;;;;;;;;;349882;28;920;-65
2022/09/29 00:10:50;;;;;;;;;;;;;;;;;;349941;28;1044;-65
2022/09/29 00:11:00;;;;;;;;;;;;;;;;;;349869;28;928;-65
2022/09/29 00:11:13;;;;;;;;;;;;;;;;;;349879;28;909;-65
2022/09/29 00:11:23;;;;;;;;;;;;;;;;;;349961;28;768;-65
2022/09/29 00:11:33;;;;;;;;;;;;;;;;;;349895;28;994;-65
2022/09/29 00:11:43;;;;;;;;;;;;;;;;;;349869;28;1026;-65
2022/09/29 00:11:54;;;;;;;;;;;;;;;;;;349958;28;852;-65
2022/09/29 00:12:05;;;;;;;;;;;;;;;;;;349919;28;912;-65
2022/09/29 00:12:15;;;;;;;;;;;;;;;;;;349848;28;860;-65
2022/09/29 00:12:25;;;;;;;;;;;;;;;;;;349887;28;994;-65
2022/09/29 00:12:35;;;;;;;;;;;;;;;;;;349900;28;868;-65
2022/09/29 00:12:46;;;;;;;;;;;;;;;;;;349896;28;912;-65
2022/09/29 00:12:56;;;;;;;;;;;;;;;;;;349922;28;995;-65
2022/09/29 00:13:06;;;;;;;;;;;;;;;;;;349861;28;940;-65
2022/09/29 00:13:17;;;;;;;;;;;;;;;;;;349913;28;1681;-65
2022/09/29 00:13:27;;;;;;;;;;;;;;;;;;349910;28;951;-64
2022/09/29 00:13:37;;;;;;;;;;;;;;;;;;349868;28;931;-65
2022/09/29 00:13:48;;;;;;;;;;;;;;;;;;349884;28;995;-65
2022/09/29 00:13:58;;;;;;;;;;;;;;;;;;349929;28;991;-65
2022/09/29 00:14:08;;;;;;;;;;;;;;;;;;349919;28;944;-65
2022/09/29 00:14:18;;;;;;;;;;;;;;;;;;349795;28;929;-65
2022/09/29 00:14:28;;;;;;;;;;;;;;;;;;349897;28;752;-65
2022/09/29 00:14:39;;;;;;;;;;;;;;;;;;349900;28;920;-65
2022/09/29 00:14:49;;;;;;;;;;;;;;;;;;349898;28;1062;-65
2022/09/29 00:14:59;;;;;;;;;;;;;;;;;;349887;28;923;-65
2022/09/29 00:15:10;;;;;;;;;;;;;;;;;;349089;28;1976;-65
2022/09/29 00:15:20;;;;;;;;;;;;;;;;;;349595;28;1662;-65
2022/09/29 00:15:30;;;;;;;;;;;;;;;;;;351312;28;971;-65
2022/09/29 00:15:40;;;;;;;;;;;;;;;;;;351276;28;1054;-65
2022/09/29 00:15:54;;;;;;;;;;;;;;;;;;351352;28;848;-65
2022/09/29 00:16:05;;;;;;;;;;;;;;;;;;351373;28;804;-65
2022/09/29 00:16:15;;;;;;;;;;;;;;;;;;351292;28;927;-65
2022/09/29 00:16:25;;;;;;;;;;;;;;;;;;351242;28;912;-65
2022/09/29 00:16:35;;;;;;;;;;;;;;;;;;351292;28;982;-65
2022/09/29 00:16:46;;;;;;;;;;;;;;;;;;351340;28;817;-65
2022/09/29 00:16:56;;;;;;;;;;;;;;;;;;351343;28;994;-65
2022/09/29 00:17:06;;;;;;;;;;;;;;;;;;351240;28;979;-65
2022/09/29 00:17:17;;;;;;;;;;;;;;;;;;351311;28;848;-64
2022/09/29 00:17:27;;;;;;;;;;;;;;;;;;351316;28;931;-64
2022/09/29 00:17:37;;;;;;;;;;;;;;;;;;351284;28;896;-64
2022/09/29 00:17:47;;;;;;;;;;;;;;;;;;351275;28;923;-65
2022/09/29 00:17:58;;;;;;;;;;;;;;;;;;351279;28;1066;-65
2022/09/29 00:18:09;;;;;;;;;;;;;;;;;;351334;28;908;-65
2022/09/29 00:18:20;;;;;;;;;;;;;;;;;;351298;28;793;-65
2022/09/29 00:18:31;;;;;;;;;;;;;;;;;;351183;28;972;-65
2022/09/29 00:18:41;;;;;;;;;;;;;;;;;;351325;28;1027;-65
2022/09/29 00:18:54;;;;;;;;;;;;;;;;;;351274;28;986;-65
2022/09/29 00:19:05;;;;;;;;;;;;;;;;;;351271;28;999;-65
2022/09/29 00:19:15;;;;;;;;;;;;;;;;;;348605;28;1300;-65
2022/09/29 00:19:27;;;;;;;;;;;;;;;;;;348586;28;917;-65
2022/09/29 00:19:38;;;;;;;;;;;;;;;;;;348535;28;845;-65
2022/09/29 00:19:48;;;;;;;;;;;;;;;;;;348776;28;1347;-65
2022/09/29 00:19:58;;;;;;;;;;;;;;;;;;349916;28;944;-65
2022/09/29 00:20:09;;;;;;;;;;;;;;;;;;349865;28;949;-65
2022/09/29 00:20:19;;;;;;;;;;;;;;;;;;349886;28;980;-64
2022/09/29 00:20:29;;;;;;;;;;;;;;;;;;349874;28;940;-64
2022/09/29 00:20:39;;;;;;;;;;;;;;;;;;349812;28;865;-65
2022/09/29 00:21:00;;;;;;;;;;;;;;;;;;349889;28;954;-65
2022/09/29 00:21:12;;;;;;;;;;;;;;;;;;351132;28;1240;-65
2022/09/29 00:21:22;;;;;;;;;;;;;;;;;;351184;28;1979;-65
2022/09/29 00:21:33;;;;;;;;;;;;;;;;;;351241;28;1017;-65
2022/09/29 00:21:43;;;;;;;;;;;;;;;;;;351262;28;920;-65
2022/09/29 00:21:53;;;;;;;;;;;;;;;;;;351289;28;1830;-65
2022/09/29 00:22:03;;;;;;;;;;;;;;;;;;351271;28;939;-65
2022/09/29 00:22:14;;;;;;;;;;;;;;;;;;351307;28;939;-65
2022/09/29 00:22:24;;;;;;;;;;;;;;;;;;351323;28;1748;-65
2022/09/29 00:22:34;;;;;;;;;;;;;;;;;;351222;28;979;-64
2022/09/29 00:22:48;;;;;;;;;;;;;;;;;;351258;28;1121;-65
2022/09/29 00:22:58;;;;;;;;;;;;;;;;;;351261;28;1015;-65
2022/09/29 00:23:08;;;;;;;;;;;;;;;;;;351316;28;911;-65
2022/09/29 00:23:18;;;;;;;;;;;;;;;;;;351266;28;964;-65
2022/09/29 00:23:29;;;;;;;;;;;;;;;;;;351224;28;976;-65
2022/09/29 00:23:39;;;;;;;;;;;;;;;;;;351274;28;881;-65
2022/09/29 00:23:50;;;;;;;;;;;;;;;;;;351291;28;920;-65
2022/09/29 00:24:00;;;;;;;;;;;;;;;;;;351272;28;864;-65
2022/09/29 00:24:11;;;;;;;;;;;;;;;;;;351364;28;1757;-65
2022/09/29 00:24:21;;;;;;;;;;;;;;;;;;351372;28;761;-65
2022/09/29 00:24:31;;;;;;;;;;;;;;;;;;351299;28;951;-65
2022/09/29 00:24:41;;;;;;;;;;;;;;;;;;351235;28;963;-65
2022/09/29 00:24:52;;;;;;;;;;;;;;;;;;351274;28;837;-65
2022/09/29 00:25:02;;;;;;;;;;;;;;;;;;351340;28;987;-65
2022/09/29 00:25:12;;;;;;;;;;;;;;;;;;351322;28;999;-65
2022/09/29 00:25:22;;;;;;;;;;;;;;;;;;351266;28;987;-65
2022/09/29 00:25:32;;;;;;;;;;;;;;;;;;351274;28;912;-65
2022/09/29 00:25:43;;;;;;;;;;;;;;;;;;351270;28;777;-65
2022/09/29 00:26:04;;;;;;;;;;;;;;;;;;351304;28;979;-65
2022/09/29 00:26:19;;;;;;;;;;;;;;;;;;351302;28;919;-65
2022/09/29 00:26:29;;;;;;;;;;;;;;;;;;351180;28;1687;-65
2022/09/29 00:26:40;;;;;;;;;;;;;;;;;;351302;28;944;-65
2022/09/29 00:26:50;;;;;;;;;;;;;;;;;;351193;28;909;-65
2022/09/29 00:27:00;;;;;;;;;;;;;;;;;;351188;28;1414;-65
2022/09/29 00:27:12;;;;;;;;;;;;;;;;;;351322;28;920;-65
2022/09/29 00:27:23;;;;;;;;;;;;;;;;;;351287;28;936;-65
2022/09/29 00:27:33;;;;;;;;;;;;;;;;;;350187;28;1315;-65
2022/09/29 00:27:43;;;;;;;;;;;;;;;;;;349854;28;948;-65
2022/09/29 00:27:54;;;;;;;;;;;;;;;;;;349902;28;931;-64
2022/09/29 00:28:04;;;;;;;;;;;;;;;;;;349913;28;1000;-65
2022/09/29 00:28:14;;;;;;;;;;;;;;;;;;349877;28;769;-65
2022/09/29 00:28:24;;;;;;;;;;;;;;;;;;349909;28;1051;-64
2022/09/29 00:28:35;;;;;;;;;;;;;;;;;;349877;28;920;-65
2022/09/29 00:28:56;;;;;;;;;;;;;;;;;;349922;28;983;-65
2022/09/29 00:29:06;;;;;;;;;;;;;;;;;;349925;28;929;-65
2022/09/29 00:29:16;;;;;;;;;;;;;;;;;;350139;28;929;-64
2022/09/29 00:29:26;;;;;;;;;;;;;;;;;;349247;28;2047;-65
2022/09/29 00:29:36;;;;;;;;;;;;;;;;;;350387;28;920;-65
2022/09/29 00:29:47;;;;;;;;;;;;;;;;;;351495;28;928;-64
2022/09/29 00:29:57;;;;;;;;;;;;;;;;;;351566;28;845;-64
2022/09/29 00:30:07;;;;;;;;;;;;;;;;;;351558;28;983;-65
2022/09/29 00:30:17;;;;;;;;;;;;;;;;;;351509;28;920;-65
2022/09/29 00:30:28;;;;;;;;;;;;;;;;;;351497;28;1054;-65
2022/09/29 00:30:38;;;;;;;;;;;;;;;;;;351562;28;853;-65
2022/09/29 00:30:48;;;;;;;;;;;;;;;;;;351582;28;967;-65
2022/09/29 00:31:00;;;;;;;;;;;;;;;;;;351539;28;987;-65
2022/09/29 00:31:11;;;;;;;;;;;;;;;;;;351510;28;801;-65
2022/09/29 00:31:22;;;;;;;;;;;;;;;;;;351522;28;983;-65
2022/09/29 00:31:32;;;;;;;;;;;;;;;;;;351555;28;979;-65
2022/09/29 00:31:42;;;;;;;;;;;;;;;;;;351502;28;1035;-64
2022/09/29 00:31:53;;;;;;;;;;;;;;;;;;351352;28;1096;-65
2022/09/29 00:32:03;;;;;;;;;;;;;;;;;;351523;28;1047;-64
2022/09/29 00:32:13;;;;;;;;;;;;;;;;;;351583;28;1672;-65
2022/09/29 00:32:24;;;;;;;;;;;;;;;;;;351571;28;939;-65
2022/09/29 00:32:34;;;;;;;;;;;;;;;;;;351495;28;1198;-65
2022/09/29 00:32:44;;;;;;;;;;;;;;;;;;351539;28;920;-65
2022/09/29 00:32:54;;;;;;;;;;;;;;;;;;351583;28;1047;-65
2022/09/29 00:33:04;;;;;;;;;;;;;;;;;;351483;28;840;-65
2022/09/29 00:33:15;;;;;;;;;;;;;;;;;;351502;28;936;-65
2022/09/29 00:33:27;;;;;;;;;;;;;;;;;;351475;28;867;-65
2022/09/29 00:33:38;;;;;;;;;;;;;;;;;;351542;28;995;-65
2022/09/29 00:33:49;;;;;;;;;;;;;;;;;;351579;28;951;-64
2022/09/29 00:33:59;;;;;;;;;;;;;;;;;;351491;28;847;-65
2022/09/29 00:34:10;;;;;;;;;;;;;;;;;;351547;28;979;-65
2022/09/29 00:34:20;;;;;;;;;;;;;;;;;;351605;28;790;-65
2022/09/29 00:34:30;;;;;;;;;;;;;;;;;;350672;28;1386;-65
2022/09/29 00:34:40;;;;;;;;;;;;;;;;;;349954;28;1031;-65
2022/09/29 00:34:50;;;;;;;;;;;;;;;;;;350100;28;879;-65
2022/09/29 00:35:01;;;;;;;;;;;;;;;;;;350139;28;813;-65
2022/09/29 00:35:11;;;;;;;;;;;;;;;;;;350108;28;975;-65
2022/09/29 00:35:21;;;;;;;;;;;;;;;;;;350157;28;1022;-65
2022/09/29 00:35:31;;;;;;;;;;;;;;;;;;350144;28;853;-65
2022/09/29 00:35:41;;;;;;;;;;;;;;;;;;350100;28;869;-65
2022/09/29 00:35:58;;;;;;;;;;;;;;;;;;350195;28;1027;-65
2022/09/29 00:36:11;;;;;;;;;;;;;;;;;;350094;28;912;-65
2022/09/29 00:36:22;;;;;;;;;;;;;;;;;;350138;28;986;-65
2022/09/29 00:36:32;;;;;;;;;;;;;;;;;;350162;28;928;-65
2022/09/29 00:36:42;;;;;;;;;;;;;;;;;;350050;28;846;-65
2022/09/29 00:36:53;;;;;;;;;;;;;;;;;;350160;28;940;-65
2022/09/29 00:37:03;;;;;;;;;;;;;;;;;;350136;28;945;-65
2022/09/29 00:37:13;;;;;;;;;;;;;;;;;;350022;28;968;-65
2022/09/29 00:37:23;;;;;;;;;;;;;;;;;;350106;28;1228;-65
2022/09/29 00:37:34;;;;;;;;;;;;;;;;;;350167;28;940;-65
2022/09/29 00:37:44;;;;;;;;;;;;;;;;;;350080;28;943;-65
2022/09/29 00:37:54;;;;;;;;;;;;;;;;;;350154;28;944;-64
2022/09/29 00:38:04;;;;;;;;;;;;;;;;;;350147;28;964;-65
2022/09/29 00:38:14;;;;;;;;;;;;;;;;;;350048;28;830;-65
2022/09/29 00:38:25;;;;;;;;;;;;;;;;;;350166;28;869;-65
2022/09/29 00:38:35;;;;;;;;;;;;;;;;;;350110;28;988;-65
2022/09/29 00:38:46;;;;;;;;;;;;;;;;;;350047;28;952;-64
2022/09/29 00:38:57;;;;;;;;;;;;;;;;;;350135;28;1000;-65
2022/09/29 00:39:07;;;;;;;;;;;;;;;;;;350140;28;948;-65
2022/09/29 00:39:17;;;;;;;;;;;;;;;;;;350046;28;988;-65
2022/09/29 00:39:27;;;;;;;;;;;;;;;;;;350137;28;873;-65
2022/09/29 00:39:38;;;;;;;;;;;;;;;;;;350070;28;964;-65
2022/09/29 00:39:48;;;;;;;;;;;;;;;;;;350088;28;980;-65
2022/09/29 00:39:58;;;;;;;;;;;;;;;;;;350132;28;1723;-65
2022/09/29 00:40:08;;;;;;;;;;;;;;;;;;350157;28;794;-65
2022/09/29 00:40:18;;;;;;;;;;;;;;;;;;350124;28;790;-65
2022/09/29 00:40:29;;;;;;;;;;;;;;;;;;350074;28;967;-65
2022/09/29 00:40:39;;;;;;;;;;;;;;;;;;350095;28;976;-65
2022/09/29 00:40:49;;;;;;;;;;;;;;;;;;350083;28;955;-65
2022/09/29 00:41:00;;;;;;;;;;;;;;;;;;350145;28;984;-65
2022/09/29 00:41:16;;;;;;;;;;;;;;;;;;350172;28;778;-65
2022/09/29 00:41:28;;;;;;;;;;;;;;;;;;349991;28;1969;-65
2022/09/29 00:41:39;;;;;;;;;;;;;;;;;;350153;28;924;-65
2022/09/29 00:41:49;;;;;;;;;;;;;;;;;;350091;28;940;-65
2022/09/29 00:41:59;;;;;;;;;;;;;;;;;;350094;28;1194;-65
2022/09/29 00:42:16;;;;;;;;;;;;;;;;;;350080;28;920;-65
2022/09/29 00:42:26;;;;;;;;;;;;;;;;;;350112;28;1019;-65
2022/09/29 00:42:36;;;;;;;;;;;;;;;;;;350176;28;832;-65
2022/09/29 00:42:47;;;;;;;;;;;;;;;;;;350099;28;988;-65
2022/09/29 00:42:57;;;;;;;;;;;;;;;;;;350117;28;817;-65
2022/09/29 00:43:12;;;;;;;;;;;;;;;;;;350126;28;963;-65
2022/09/29 00:43:24;;;;;;;;;;;;;;;;;;349343;28;2084;-65
2022/09/29 00:43:47;;;;;;;;;;;;;;;;;;350455;28;932;-65
2022/09/29 00:43:57;;;;;;;;;;;;;;;;;;351474;28;1014;-65
2022/09/29 00:44:13;;;;;;;;;;;;;;;;;;351521;28;884;-65
2022/09/29 00:44:42;;;;;;;;;;;;;;;;;;351496;28;915;-65
2022/09/29 00:45:02;;;;;;;;;;;;;;;;;;351477;28;869;-65
2022/09/29 00:45:20;;;;;;;;;;;;;;;;;;348697;28;949;-65
2022/09/29 00:45:30;;;;;;;;;;;;;;;;;;348660;28;921;-65
2022/09/29 00:45:41;;;;;;;;;;;;;;;;;;348717;28;960;-65
2022/09/29 00:45:53;;;;;;;;;;;;;;;;;;348682;28;855;-65
2022/09/29 00:46:05;;;;;;;;;;;;;;;;;;348749;28;925;-64
2022/09/29 00:46:18;;;;;;;;;;;;;;;;;;348716;28;988;-65
2022/09/29 00:46:34;;;;;;;;;;;;;;;;;;348773;28;870;-65
2022/09/29 00:46:50;;;;;;;;;;;;;;;;;;348749;28;960;-65
2022/09/29 00:47:01;;;;;;;;;;;;;;;;;;348645;28;945;-65
2022/09/29 00:47:16;;;;;;;;;;;;;;;;;;348705;28;956;-65
2022/09/29 00:47:27;;;;;;;;;;;;;;;;;;348755;28;841;-65
2022/09/29 00:47:41;;;;;;;;;;;;;;;;;;348668;28;1009;-65
2022/09/29 00:48:04;;;;;;;;;;;;;;;;;;348724;28;1007;-65
2022/09/29 00:48:18;;;;;;;;;;;;;;;;;;348701;28;936;-65
2022/09/29 00:48:31;;;;;;;;;;;;;;;;;;348742;28;972;-64
2022/09/29 00:48:42;;;;;;;;;;;;;;;;;;348753;28;812;-65
2022/09/29 00:48:54;;;;;;;;;;;;;;;;;;348722;28;945;-65
2022/09/29 00:49:09;;;;;;;;;;;;;;;;;;348712;28;1070;-65
2022/09/29 00:49:28;;;;;;;;;;;;;;;;;;348743;28;857;-65
2022/09/29 00:49:39;;;;;;;;;;;;;;;;;;348660;28;917;-65
2022/09/29 00:49:55;;;;;;;;;;;;;;;;;;348688;28;1020;-65
2022/09/29 00:50:35;;;;;;;;;;;;;;;;;;348747;28;940;-65
2022/09/29 00:50:47;;;;;;;;;;;;;;;;;;349982;28;817;-65
2022/09/29 00:50:58;;;;;;;;;;;;;;;;;;349868;28;940;-65
2022/09/29 00:51:08;;;;;;;;;;;;;;;;;;349564;28;2280;-65
2022/09/29 00:51:19;;;;;;;;;;;;;;;;;;348786;28;920;-65
2022/09/29 00:51:32;;;;;;;;;;;;;;;;;;348744;28;1051;-65
2022/09/29 00:51:44;;;;;;;;;;;;;;;;;;348742;28;1035;-65
2022/09/29 00:52:03;;;;;;;;;;;;;;;;;;348732;28;778;-65
2022/09/29 00:52:20;;;;;;;;;;;;;;;;;;348711;28;885;-65
2022/09/29 00:52:33;;;;;;;;;;;;;;;;;;348732;28;1019;-65
2022/09/29 00:52:46;;;;;;;;;;;;;;;;;;348719;28;987;-65
2022/09/29 00:53:00;;;;;;;;;;;;;;;;;;348782;28;861;-65
2022/09/29 00:53:11;;;;;;;;;;;;;;;;;;348798;28;802;-65
2022/09/29 00:53:22;;;;;;;;;;;;;;;;;;348686;28;925;-65
2022/09/29 00:53:33;;;;;;;;;;;;;;;;;;348692;28;1082;-65
2022/09/29 00:53:43;;;;;;;;;;;;;;;;;;348785;28;1020;-65
2022/09/29 00:53:54;;;;;;;;;;;;;;;;;;348635;28;937;-65
2022/09/29 00:54:06;;;;;;;;;;;;;;;;;;348752;28;842;-65
2022/09/29 00:54:17;;;;;;;;;;;;;;;;;;348715;28;960;-65
2022/09/29 00:54:29;;;;;;;;;;;;;;;;;;348744;28;979;-65
2022/09/29 00:54:42;;;;;;;;;;;;;;;;;;348726;28;870;-65
2022/09/29 00:54:56;;;;;;;;;;;;;;;;;;348702;28;1345;-65
2022/09/29 00:55:09;;;;;;;;;;;;;;;;;;348766;28;928;-65
2022/09/29 00:55:23;;;;;;;;;;;;;;;;;;348703;28;936;-65
2022/09/29 00:55:36;;;;;;;;;;;;;;;;;;348758;28;903;-65
2022/09/29 00:55:55;;;;;;;;;;;;;;;;;;348746;28;920;-65
2022/09/29 00:56:09;;;;;;;;;;;;;;;;;;348623;28;1071;-65
2022/09/29 00:56:20;;;;;;;;;;;;;;;;;;348743;28;1017;-65
2022/09/29 00:56:31;;;;;;;;;;;;;;;;;;348720;28;944;-65
2022/09/29 00:56:41;;;;;;;;;;;;;;;;;;348699;28;1055;-65
2022/09/29 00:56:51;;;;;;;;;;;;;;;;;;348774;28;1039;-65
2022/09/29 00:57:03;;;;;;;;;;;;;;;;;;348741;28;889;-65
2022/09/29 00:57:15;;;;;;;;;;;;;;;;;;348708;28;975;-65
2022/09/29 00:57:28;;;;;;;;;;;;;;;;;;350734;28;1952;-65
2022/09/29 00:57:41;;;;;;;;;;;;;;;;;;351901;28;793;-65
2022/09/29 00:57:58;;;;;;;;;;;;;;;;;;351443;28;991;-65
2022/09/29 00:58:14;;;;;;;;;;;;;;;;;;351375;28;925;-65
2022/09/29 00:58:33;;;;;;;;;;;;;;;;;;352676;28;1284;-65
2022/09/29 00:58:53;;;;;;;;;;;;;;;;;;352780;28;853;-65
2022/09/29 00:59:06;;;;;;;;;;;;;;;;;;352801;28;920;-65
2022/09/29 00:59:19;;;;;;;;;;;;;;;;;;352807;28;975;-65
2022/09/29 00:59:38;;;;;;;;;;;;;;;;;;350064;28;1007;-65
2022/09/29 00:59:56;;;;;;;;;;;;;;;;;;350118;28;920;-65
2022/09/29 01:00:08;;;;;;;;;;;;;;;;;;350027;28;971;-65
2022/09/29 01:00:19;;;;;;;;;;;;;;;;;;350098;28;987;-65
2022/09/29 01:00:29;;;;;;;;;;;;;;;;;;350112;28;995;-65
2022/09/29 01:00:40;;;;;;;;;;;;;;;;;;350151;28;794;-65
2022/09/29 01:00:50;;;;;;;;;;;;;;;;;;350207;28;1027;-64
2022/09/29 01:01:01;;;;;;;;;;;;;;;;;;350098;27;932;-65
2022/09/29 01:01:12;;;;;;;;;;;;;;;;;;350114;28;921;-65
2022/09/29 01:01:24;;;;;;;;;;;;;;;;;;350163;28;928;-64
2022/09/29 01:01:34;;;;;;;;;;;;;;;;;;350104;28;971;-65
2022/09/29 01:01:45;;;;;;;;;;;;;;;;;;350126;28;987;-65
2022/09/29 01:01:55;;;;;;;;;;;;;;;;;;350077;28;860;-65
2022/09/29 01:02:06;;;;;;;;;;;;;;;;;;350105;28;924;-64
2022/09/29 01:02:18;;;;;;;;;;;;;;;;;;350053;28;876;-65
2022/09/29 01:02:29;;;;;;;;;;;;;;;;;;350121;28;995;-64
2022/09/29 01:02:41;;;;;;;;;;;;;;;;;;350088;28;779;-64
2022/09/29 01:03:00;;;;;;;;;;;;;;;;;;350105;28;988;-64
2022/09/29 01:03:14;;;;;;;;;;;;;;;;;;350012;28;991;-65
2022/09/29 01:03:26;;;;;;;;;;;;;;;;;;350135;28;1034;-65
2022/09/29 01:03:38;;;;;;;;;;;;;;;;;;350111;28;784;-65
2022/09/29 01:03:52;;;;;;;;;;;;;;;;;;350010;28;1209;-64
2022/09/29 01:04:10;;;;;;;;;;;;;;;;;;350079;28;887;-65
2022/09/29 01:04:21;;;;;;;;;;;;;;;;;;350010;28;803;-65
2022/09/29 01:04:31;;;;;;;;;;;;;;;;;;350133;28;912;-65
2022/09/29 01:04:41;;;;;;;;;;;;;;;;;;350100;28;999;-65
2022/09/29 01:04:53;;;;;;;;;;;;;;;;;;350046;28;920;-65
2022/09/29 01:05:05;;;;;;;;;;;;;;;;;;350118;28;984;-64
2022/09/29 01:05:19;;;;;;;;;;;;;;;;;;350099;28;924;-65
2022/09/29 01:05:32;;;;;;;;;;;;;;;;;;350058;28;969;-65
2022/09/29 01:05:44;;;;;;;;;;;;;;;;;;350125;28;781;-65
2022/09/29 01:06:00;;;;;;;;;;;;;;;;;;350097;28;936;-65
2022/09/29 01:06:15;;;;;;;;;;;;;;;;;;350102;28;944;-65
2022/09/29 01:06:30;;;;;;;;;;;;;;;;;;350062;28;831;-65
2022/09/29 01:06:42;;;;;;;;;;;;;;;;;;350090;28;1000;-65
2022/09/29 01:06:54;;;;;;;;;;;;;;;;;;349090;28;1379;-64
2022/09/29 01:07:06;;;;;;;;;;;;;;;;;;348749;28;849;-65
2022/09/29 01:07:16;;;;;;;;;;;;;;;;;;348678;28;988;-65
2022/09/29 01:07:27;;;;;;;;;;;;;;;;;;348695;28;861;-65
2022/09/29 01:07:38;;;;;;;;;;;;;;;;;;348739;28;912;-65
2022/09/29 01:07:48;;;;;;;;;;;;;;;;;;348726;28;984;-65
2022/09/29 01:08:06;;;;;;;;;;;;;;;;;;348767;28;1034;-65
2022/09/29 01:08:22;;;;;;;;;;;;;;;;;;348646;28;920;-65
2022/09/29 01:08:39;;;;;;;;;;;;;;;;;;348675;28;869;-65
2022/09/29 01:08:52;;;;;;;;;;;;;;;;;;348736;28;991;-65
2022/09/29 01:09:04;;;;;;;;;;;;;;;;;;348782;28;869;-65
2022/09/29 01:09:20;;;;;;;;;;;;;;;;;;348708;28;793;-65
2022/09/29 01:09:33;;;;;;;;;;;;;;;;;;348700;28;1204;-65
2022/09/29 01:09:44;;;;;;;;;;;;;;;;;;348700;28;904;-65
2022/09/29 01:09:55;;;;;;;;;;;;;;;;;;348768;28;908;-65
2022/09/29 01:10:06;;;;;;;;;;;;;;;;;;348778;28;972;-65
2022/09/29 01:10:17;;;;;;;;;;;;;;;;;;348654;28;924;-65
2022/09/29 01:10:27;;;;;;;;;;;;;;;;;;348726;28;924;-64
2022/09/29 01:10:40;;;;;;;;;;;;;;;;;;348648;28;960;-65
2022/09/29 01:10:50;;;;;;;;;;;;;;;;;;348673;28;1015;-65
2022/09/29 01:11:02;;;;;;;;;;;;;;;;;;348707;28;812;-65
2022/09/29 01:11:13;;;;;;;;;;;;;;;;;;348732;28;963;-65
2022/09/29 01:11:23;;;;;;;;;;;;;;;;;;348704;28;850;-65
2022/09/29 01:11:34;;;;;;;;;;;;;;;;;;348176;28;2009;-65
2022/09/29 01:11:44;;;;;;;;;;;;;;;;;;349619;28;1542;-65
2022/09/29 01:11:57;;;;;;;;;;;;;;;;;;351438;28;873;-65
2022/09/29 01:12:07;;;;;;;;;;;;;;;;;;351504;28;1014;-65
2022/09/29 01:12:17;;;;;;;;;;;;;;;;;;351560;28;845;-65
2022/09/29 01:12:27;;;;;;;;;;;;;;;;;;351448;28;860;-65
2022/09/29 01:12:38;;;;;;;;;;;;;;;;;;351435;28;960;-65
2022/09/29 01:12:48;;;;;;;;;;;;;;;;;;351515;28;917;-65
2022/09/29 01:12:58;;;;;;;;;;;;;;;;;;351447;28;868;-65
2022/09/29 01:13:08;;;;;;;;;;;;;;;;;;349210;28;2015;-65
2022/09/29 01:13:19;;;;;;;;;;;;;;;;;;348726;28;941;-65
2022/09/29 01:13:30;;;;;;;;;;;;;;;;;;348658;28;977;-65
2022/09/29 01:13:41;;;;;;;;;;;;;;;;;;348785;28;980;-65
2022/09/29 01:13:51;;;;;;;;;;;;;;;;;;348316;28;1409;-65
2022/09/29 01:14:04;;;;;;;;;;;;;;;;;;350041;28;956;-65
2022/09/29 01:14:15;;;;;;;;;;;;;;;;;;350094;28;973;-65
2022/09/29 01:14:26;;;;;;;;;;;;;;;;;;350112;28;931;-64
2022/09/29 01:14:37;;;;;;;;;;;;;;;;;;350064;28;932;-65
2022/09/29 01:14:48;;;;;;;;;;;;;;;;;;350027;28;928;-65
2022/09/29 01:14:58;;;;;;;;;;;;;;;;;;350098;28;963;-65
2022/09/29 01:15:08;;;;;;;;;;;;;;;;;;350097;28;972;-65
2022/09/29 01:15:20;;;;;;;;;;;;;;;;;;350055;28;1000;-65
2022/09/29 01:15:31;;;;;;;;;;;;;;;;;;350046;28;991;-65
2022/09/29 01:15:41;;;;;;;;;;;;;;;;;;350110;28;762;-65
2022/09/29 01:15:51;;;;;;;;;;;;;;;;;;349489;28;1701;-65
2022/09/29 01:16:01;;;;;;;;;;;;;;;;;;349568;28;1582;-64
2022/09/29 01:16:11;;;;;;;;;;;;;;;;;;350075;28;987;-65
2022/09/29 01:16:22;;;;;;;;;;;;;;;;;;350022;28;1237;-65
2022/09/29 01:16:33;;;;;;;;;;;;;;;;;;350059;28;871;-65
2022/09/29 01:16:44;;;;;;;;;;;;;;;;;;350070;28;940;-65
2022/09/29 01:16:54;;;;;;;;;;;;;;;;;;350036;28;928;-65
2022/09/29 01:17:05;;;;;;;;;;;;;;;;;;350095;28;964;-65
2022/09/29 01:17:16;;;;;;;;;;;;;;;;;;350098;28;824;-65
2022/09/29 01:17:26;;;;;;;;;;;;;;;;;;350039;28;956;-65
2022/09/29 01:17:37;;;;;;;;;;;;;;;;;;350084;28;892;-65
2022/09/29 01:17:47;;;;;;;;;;;;;;;;;;350109;28;1059;-65
2022/09/29 01:17:58;;;;;;;;;;;;;;;;;;350020;28;1003;-65
2022/09/29 01:18:08;;;;;;;;;;;;;;;;;;350081;28;912;-65
2022/09/29 01:18:18;;;;;;;;;;;;;;;;;;350093;28;948;-65
2022/09/29 01:18:29;;;;;;;;;;;;;;;;;;350032;28;956;-65
2022/09/29 01:18:40;;;;;;;;;;;;;;;;;;350121;28;827;-65
2022/09/29 01:18:51;;;;;;;;;;;;;;;;;;349968;28;932;-65
2022/09/29 01:19:06;;;;;;;;;;;;;;;;;;350107;28;988;-65
2022/09/29 01:19:22;;;;;;;;;;;;;;;;;;350089;28;924;-65
2022/09/29 01:19:43;;;;;;;;;;;;;;;;;;350050;28;912;-65
2022/09/29 01:19:53;;;;;;;;;;;;;;;;;;350068;28;837;-65
2022/09/29 01:20:12;;;;;;;;;;;;;;;;;;350083;28;928;-65
2022/09/29 01:20:22;;;;;;;;;;;;;;;;;;350061;28;928;-65
2022/09/29 01:20:36;;;;;;;;;;;;;;;;;;350027;28;940;-65
2022/09/29 01:20:51;;;;;;;;;;;;;;;;;;350055;28;937;-65
2022/09/29 01:21:02;;;;;;;;;;;;;;;;;;350190;28;1244;-65
2022/09/29 01:21:30;;;;;;;;;;;;;;;;;;351474;28;798;-65
2022/09/29 01:21:49;;;;;;;;;;;;;;;;;;351420;28;861;-65
2022/09/29 01:21:59;;;;;;;;;;;;;;;;;;351514;28;912;-64
2022/09/29 01:22:17;;;;;;;;;;;;;;;;;;351461;28;920;-65
2022/09/29 01:22:39;;;;;;;;;;;;;;;;;;351448;27;904;-65
2022/09/29 01:23:08;;;;;;;;;;;;;;;;;;351415;28;979;-65
2022/09/29 01:23:37;;;;;;;;;;;;;;;;;;351519;28;1035;-65
2022/09/29 01:24:13;;;;;;;;;;;;;;;;;;351432;28;1067;-65
2022/09/29 01:24:32;;;;;;;;;;;;;;;;;;350246;28;1025;-65
2022/09/29 01:24:51;;;;;;;;;;;;;;;;;;351399;28;983;-65
2022/09/29 01:25:02;;;;;;;;;;;;;;;;;;351468;28;1004;-65